Time;durP1;ratioP1;P1;durP2;ratioP2;P2;SDS_P1;SDS_P2;PMS_P1;PMS_P2;Temp;Humidity;BMP_temperature;BMP_pressure;BME280_temperature;BME280_humidity;BME280_pressure;Samples;Min_cycle;Max_cycle;Signal;HPM_P1;HPM_P2
2021/06/22 00:02:12;;;;;;;11.07;5.90;;;;;;;29.48;61.08;100741.69;4896949;29;66032;-37
2021/06/22 00:05:19;;;;;;;20.00;6.33;;;;;;;29.56;59.90;100749.53;4893964;29;70594;-34
2021/06/22 00:07:58;;;;;;;24.70;6.00;;;;;;;29.39;63.91;100704.09;4927853;28;66237;-36
2021/06/22 00:10:49;;;;;;;15.93;5.78;;;;;;;29.51;60.98;100708.84;4942040;28;69954;-38
2021/06/22 00:13:38;;;;;;;22.63;6.50;;;;;;;29.75;62.55;100745.94;4972276;28;64963;-36
2021/06/22 00:16:10;;;;;;;18.45;6.50;;;;;;;29.89;62.04;100764.81;4971739;28;69975;-35
2021/06/22 00:18:41;;;;;;;24.60;6.43;;;;;;;29.94;62.72;100773.09;4972684;28;65796;-36
2021/06/22 00:21:31;;;;;;;9.10;6.35;;;;;;;29.93;63.16;100761.47;4971893;28;69860;-35
2021/06/22 00:24:02;;;;;;;12.50;7.22;;;;;;;29.94;62.98;100762.28;4967838;28;66606;-37
2021/06/22 00:29:24;;;;;;;41.72;7.47;;;;;;;30.05;65.47;100780.53;5016137;28;66191;-36
2021/06/22 00:34:45;;;;;;;36.95;8.25;;;;;;;30.12;65.81;100792.16;5015599;28;65636;-34
2021/06/22 00:37:19;;;;;;;24.05;7.82;;;;;;;29.96;65.36;100752.91;5016397;28;70204;-37
2021/06/22 00:39:50;;;;;;;22.83;7.97;;;;;;;30.29;64.74;100792.50;5016530;28;65375;-37
2021/06/22 00:48:40;;;;;;;12.02;6.63;;;;;;;30.43;63.53;100788.63;5030996;28;69907;-36
2021/06/22 00:51:30;;;;;;;15.73;6.63;;;;;;;30.49;63.25;100803.16;5026235;28;65879;-36
2021/06/22 00:54:01;;;;;;;17.90;7.28;;;;;;;30.56;63.50;100814.75;5021174;28;69803;-36
2021/06/22 00:56:36;;;;;;;12.20;6.60;;;;;;;30.58;62.98;100819.97;5022834;28;65125;-35
2021/06/22 00:59:09;;;;;;;10.18;6.72;;;;;;;30.61;63.31;100822.22;5017827;28;70205;-37
2021/06/22 01:01:40;;;;;;;;;;;;;;;30.47;64.59;100827.72;5017381;28;66914;-37
2021/06/22 01:04:11;;;;;;;18.30;6.68;;;;;;;30.64;62.79;100841.56;5017888;28;69684;-36
2021/06/22 01:09:40;;;;;;;12.68;6.35;;;;;;;30.68;62.62;100853.63;5031179;28;69384;-37
2021/06/22 01:12:17;;;;;;;11.18;6.72;;;;;;;30.67;62.25;100843.84;5019219;28;66634;-36
2021/06/22 01:14:51;;;;;;;9.02;6.47;;;;;;;30.71;61.97;100849.66;5021429;28;70214;-37
2021/06/22 01:20:38;;;;;;;16.27;6.10;;;;;;;30.81;61.86;100870.84;5078515;27;72236;-37
2021/06/22 01:23:12;;;;;;;7.60;5.60;;;;;;;30.80;61.87;100871.91;5090623;27;66191;-36
2021/06/22 01:26:10;;;;;;;11.85;6.32;;;;;;;30.81;61.26;100873.56;5087318;27;69635;-37
2021/06/22 01:28:53;;;;;;;9.32;6.13;;;;;;;30.84;61.60;100881.22;5026970;28;64433;-37
2021/06/22 01:31:26;;;;;;;10.88;5.88;;;;;;;30.89;61.26;100893.06;5027564;28;69477;-36
2021/06/22 01:33:59;;;;;;;7.70;5.45;;;;;;;30.90;61.14;100896.63;5030989;28;65231;-39
2021/06/22 01:36:35;;;;;;;11.43;6.40;;;;;;;30.94;61.05;100897.84;5012837;28;70031;-37
2021/06/22 01:42:10;;;;;;;8.98;5.68;;;;;;;30.94;61.81;100892.41;5028753;28;70059;-36
2021/06/22 01:44:52;;;;;;;7.63;6.03;;;;;;;31.01;61.75;100909.47;5031824;28;66655;-37
2021/06/22 01:48:07;;;;;;;7.30;5.38;;;;;;;31.05;61.01;100913.38;5030631;28;70751;-37
2021/06/22 01:50:45;;;;;;;9.98;5.93;;;;;;;31.08;61.51;100914.81;5004667;28;66045;-37
2021/06/22 01:53:43;;;;;;;9.80;6.15;;;;;;;31.10;61.18;100916.25;5029437;28;69883;-36
2021/06/22 01:56:41;;;;;;;11.65;6.65;;;;;;;31.07;61.75;100916.69;5029635;28;66365;-37
2021/06/22 01:59:20;;;;;;;8.43;5.78;;;;;;;31.11;60.73;100915.19;5010640;28;70109;-37
2021/06/22 02:02:06;;;;;;;10.18;5.95;;;;;;;31.19;61.16;100921.41;5026698;28;66329;-36
2021/06/22 02:05:14;;;;;;;12.65;6.13;;;;;;;31.16;61.21;100918.06;5016648;27;70251;-36
2021/06/22 02:08:19;;;;;;;9.98;5.95;;;;;;;31.19;61.64;100921.41;5080356;27;65050;-37
2021/06/22 02:11:01;;;;;;;9.60;5.75;;;;;;;31.25;60.90;100928.63;5091935;27;69733;-36
2021/06/22 02:13:49;;;;;;;9.50;5.55;;;;;;;31.31;61.19;100935.88;5108112;27;66237;-36
2021/06/22 02:16:47;;;;;;;11.70;5.80;;;;;;;31.34;61.01;100930.00;5022607;28;68864;-37
2021/06/22 02:19:45;;;;;;;10.00;5.35;;;;;;;31.35;60.64;100932.50;5023903;28;65848;-37
2021/06/22 02:26:36;;;;;;;12.57;5.80;;;;;;;31.32;61.44;100935.66;5020443;28;65323;-36
2021/06/22 02:29:28;;;;;;;9.80;5.28;;;;;;;31.45;60.20;100934.72;4985902;28;70141;-37
2021/06/22 02:35:06;;;;;;;9.48;5.47;;;;;;;31.53;60.34;100929.00;4967037;28;70749;-37
2021/06/22 02:38:05;;;;;;;11.55;5.40;;;;;;;31.56;60.52;100923.16;4989242;28;65558;-36
2021/06/22 02:40:43;;;;;;;12.23;5.47;;;;;;;31.56;60.39;100916.91;4969463;28;69161;-38
2021/06/22 02:43:33;;;;;;;8.13;5.80;;;;;;;31.56;60.61;100919.59;4982667;28;66208;-37
2021/06/22 02:46:13;;;;;;;11.02;4.72;;;;;;;31.51;60.17;100912.16;4982808;28;70131;-38
2021/06/22 02:49:02;;;;;;;5.93;5.00;;;;;;;31.62;60.11;100921.41;4987604;28;66207;-37
2021/06/22 02:52:01;;;;;;;5.75;4.55;;;;;;;31.66;60.14;100919.94;4986355;28;69811;-37
2021/06/22 02:55:06;;;;;;;11.65;5.25;;;;;;;31.44;60.54;100884.28;5017620;28;65481;-37
2021/06/22 02:57:59;;;;;;;6.40;4.78;;;;;;;31.01;59.84;100790.25;4986774;28;70214;-37
2021/06/22 03:01:03;;;;;;;9.48;5.13;;;;;;;31.71;60.17;100894.84;5025903;28;66398;-38
2021/06/22 03:03:40;;;;;;;7.50;4.57;;;;;;;31.71;59.55;100889.44;5029292;28;69993;-38
2021/06/22 03:07:00;;;;;;;11.70;4.95;;;;;;;31.71;60.20;100892.16;5026333;28;65152;-38
2021/06/22 03:09:49;;;;;;;9.25;4.57;;;;;;;31.76;59.68;100889.56;5005892;28;69825;-39
2021/06/22 03:12:25;;;;;;;11.35;5.28;;;;;;;31.78;59.98;100890.16;5023030;28;66727;-38
2021/06/22 03:15:19;;;;;;;10.55;4.05;;;;;;;31.69;59.74;100875.25;4998809;28;69743;-38
2021/06/22 03:18:05;;;;;;;8.18;4.35;;;;;;;31.80;60.11;100890.78;5018622;28;66538;-39
2021/06/22 03:20:50;;;;;;;11.73;4.80;;;;;;;31.82;59.71;100883.25;5020536;28;70517;-38
2021/06/22 03:24:07;;;;;;;9.77;4.95;;;;;;;31.87;59.58;100875.25;5011640;28;65671;-37
2021/06/22 03:33:52;;;;;;;5.25;4.28;;;;;;;31.95;59.64;100850.53;5016284;28;70164;-38
2021/06/22 03:36:38;;;;;;;6.30;4.10;;;;;;;32.01;59.68;100852.38;5040677;28;66169;-38
2021/06/22 03:39:20;;;;;;;6.82;3.95;;;;;;;32.04;59.75;100843.78;5055987;27;70231;-37
2021/06/22 03:42:12;;;;;;;8.85;4.53;;;;;;;32.01;59.61;100846.94;5092027;27;66453;-37
2021/06/22 03:45:08;;;;;;;;;;;;;;;31.88;60.04;100841.66;5092199;27;70309;-37
2021/06/22 03:47:52;;;;;;;6.53;4.20;;;;;;;32.08;59.30;100838.69;5093496;27;66570;-37
2021/06/22 03:54:19;;;;;;;7.57;4.10;;;;;;;32.06;59.47;100840.81;5098671;27;67435;-38
2021/06/22 03:57:13;;;;;;;9.82;4.10;;;;;;;32.18;58.78;100832.72;4982891;28;70325;-38
2021/06/22 04:03:53;;;;;;;6.72;4.68;;;;;;;32.20;58.75;100820.56;4987186;28;69983;-37
2021/06/22 04:07:09;;;;;;;6.30;4.70;;;;;;;32.32;58.93;100817.91;4939725;28;66197;-38
2021/06/22 04:10:20;;;;;;;9.68;4.78;;;;;;;32.31;58.44;100815.41;4988890;28;70327;-37
2021/06/22 04:13:02;;;;;;;7.05;4.30;;;;;;;32.41;58.68;100805.66;4973295;28;66177;-38
2021/06/22 04:15:58;;;;;;;6.82;4.38;;;;;;;32.46;58.18;100797.66;4975888;28;69704;-38
2021/06/22 04:18:33;;;;;;;5.90;4.38;;;;;;;32.53;58.01;100794.00;4990510;28;66477;-38
2021/06/22 04:21:09;;;;;;;6.97;4.57;;;;;;;32.53;57.99;100778.53;4957877;28;70232;-38
2021/06/22 04:23:49;;;;;;;6.85;4.35;;;;;;;32.54;57.76;100777.50;4986503;28;65757;-39
2021/06/22 04:27:18;;;;;;;8.20;4.20;;;;;;;32.53;57.96;100785.88;4979487;28;70056;-38
2021/06/22 04:29:55;;;;;;;7.32;4.60;;;;;;;32.54;58.01;100774.78;4984268;28;65931;-39
2021/06/22 04:32:29;;;;;;;7.05;4.60;;;;;;;32.55;58.08;100770.19;4992548;28;70669;-38
2021/06/22 04:35:27;;;;;;;7.30;4.05;;;;;;;32.47;57.91;100776.78;5085169;27;66365;-38
2021/06/22 04:38:25;;;;;;;8.98;4.22;;;;;;;32.51;58.01;100782.56;5104471;27;68758;-38
2021/06/22 04:40:58;;;;;;;7.38;4.45;;;;;;;32.59;57.78;100779.50;5073253;27;65531;-39
2021/06/22 04:43:32;;;;;;;6.93;4.40;;;;;;;32.61;57.64;100775.50;5105138;27;70445;-38
2021/06/22 04:46:07;;;;;;;5.50;4.05;;;;;;;32.62;57.70;100776.31;5089456;27;65503;-38
2021/06/22 04:48:44;;;;;;;8.88;4.43;;;;;;;32.62;57.80;100774.41;5096718;27;70159;-39
2021/06/22 04:51:21;;;;;;;7.60;4.28;;;;;;;32.60;57.58;100770.31;5096117;27;66242;-38
2021/06/22 04:54:52;;;;;;;8.05;3.58;;;;;;;32.58;57.73;100789.53;5050942;28;69522;-39
2021/06/22 04:57:59;;;;;;;6.43;3.95;;;;;;;32.67;57.76;100779.16;5045832;28;65304;-40
2021/06/22 05:00:53;;;;;;;12.55;4.82;;;;;;;32.68;57.63;100780.78;5018651;28;69691;-39
2021/06/22 05:03:36;;;;;;;6.97;3.80;;;;;;;32.67;57.67;100781.88;5048600;28;66236;-38
2021/06/22 05:06:11;;;;;;;6.80;4.07;;;;;;;32.62;57.66;100757.31;5041213;28;69807;-38
2021/06/22 05:08:58;;;;;;;11.18;4.18;;;;;;;32.68;57.51;100769.94;5047329;28;65349;-38
2021/06/22 05:12:04;;;;;;;7.10;4.28;;;;;;;32.69;57.43;100774.31;5049408;28;70454;-37
2021/06/22 05:15:06;;;;;;;;;;;;;;;32.44;58.07;100783.47;5050029;28;65923;-40
2021/06/22 05:20:47;;;;;;;6.78;3.67;;;;;;;32.65;58.08;100778.56;5050260;28;65786;-37
2021/06/22 05:26:29;;;;;;;11.98;4.47;;;;;;;32.63;57.96;100758.97;5046241;28;66543;-37
2021/06/22 05:29:53;;;;;;;4.80;4.10;;;;;;;32.59;57.97;100742.31;4954735;28;68803;-37
2021/06/22 05:32:57;;;;;;;7.18;4.00;;;;;;;32.64;58.36;100758.72;4990562;28;66637;-38
2021/06/22 05:36:04;;;;;;;6.90;4.00;;;;;;;32.56;58.53;100752.81;4989883;28;69926;-38
2021/06/22 05:38:58;;;;;;;6.35;4.18;;;;;;;32.58;58.61;100762.38;4990090;28;66115;-39
2021/06/22 05:41:53;;;;;;;7.10;4.28;;;;;;;32.59;58.82;100765.91;4987491;28;69454;-38
2021/06/22 05:44:39;;;;;;;9.07;4.20;;;;;;;32.58;58.58;100767.00;4988143;28;66611;-38
2021/06/22 05:47:15;;;;;;;5.63;4.07;;;;;;;32.55;58.71;100764.75;4988106;28;70177;-37
2021/06/22 05:50:12;;;;;;;7.22;3.80;;;;;;;32.52;58.91;100762.50;4964234;28;66236;-39
2021/06/22 05:53:04;;;;;;;10.57;4.05;;;;;;;32.56;58.82;100769.09;4991424;28;70377;-39
2021/06/22 05:56:08;;;;;;;5.85;4.38;;;;;;;32.54;59.06;100755.78;4951392;28;67030;-41
2021/06/22 05:59:14;;;;;;;7.22;4.70;;;;;;;32.55;59.39;100751.16;4944690;28;69935;-38
2021/06/22 06:02:12;;;;;;;12.10;4.90;;;;;;;32.53;59.33;100740.53;4910715;28;66061;-37
2021/06/22 06:04:53;;;;;;;10.98;4.88;;;;;;;32.53;59.43;100739.72;4878429;28;69943;-38
2021/06/22 06:07:26;;;;;;;8.30;4.57;;;;;;;32.54;59.27;100752.22;4952616;28;65997;-38
2021/06/22 06:13:32;;;;;;;6.80;4.68;;;;;;;32.51;59.54;100760.84;4967194;28;66280;-39
2021/06/22 06:16:51;;;;;;;5.47;4.28;;;;;;;32.42;59.61;100739.41;4947631;28;70222;-39
2021/06/22 06:19:26;;;;;;;6.07;4.78;;;;;;;32.45;59.27;100729.97;4962012;28;67574;-37
2021/06/22 06:22:30;;;;;;;6.55;4.82;;;;;;;32.46;59.54;100727.06;4968112;28;70181;-39
2021/06/22 06:28:19;;;;;;;8.27;5.03;;;;;;;32.45;59.39;100703.66;4966086;28;69357;-38
2021/06/22 06:31:18;;;;;;;8.93;5.13;;;;;;;32.45;59.47;100692.78;4967314;28;66217;-38
2021/06/22 06:34:30;;;;;;;9.23;5.32;;;;;;;32.38;59.38;100683.97;4988682;28;68724;-38
2021/06/22 06:37:19;;;;;;;7.47;5.13;;;;;;;32.42;59.67;100676.97;5042912;27;65951;-38
2021/06/22 06:39:57;;;;;;;11.07;5.72;;;;;;;32.41;59.56;100667.19;5099966;27;69411;-38
2021/06/22 06:43:12;;;;;;;8.85;5.05;;;;;;;32.41;59.53;100658.22;5093527;27;66093;-39
2021/06/22 06:45:55;;;;;;;9.50;5.82;;;;;;;32.40;59.53;100657.41;5098009;27;71020;-37
2021/06/22 06:48:33;;;;;;;8.50;5.60;;;;;;;32.39;59.55;100658.44;5107573;27;65380;-38
2021/06/22 06:51:08;;;;;;;8.55;5.53;;;;;;;32.40;59.57;100659.28;5093179;27;69787;-37
2021/06/22 06:53:53;;;;;;;6.63;5.22;;;;;;;32.37;59.48;100635.31;5104312;27;66759;-38
2021/06/22 06:56:56;;;;;;;7.93;5.70;;;;;;;32.37;59.47;100619.03;5099524;27;70230;-36
2021/06/22 06:59:39;;;;;;;6.35;5.10;;;;;;;32.36;59.99;100618.22;5100542;27;65685;-38
2021/06/22 07:02:21;;;;;;;7.68;5.53;;;;;;;32.34;59.88;100625.75;5094731;27;69720;-37
2021/06/22 07:05:36;;;;;;;8.13;5.78;;;;;;;32.35;59.86;100622.00;5105825;27;43416;-38
2021/06/22 07:08:11;;;;;;;11.75;5.45;;;;;;;32.35;59.73;100616.56;5088936;27;70044;-37
2021/06/22 07:11:23;;;;;;;6.00;5.40;;;;;;;32.22;60.10;100628.47;5084370;27;67625;-37
2021/06/22 07:13:57;;;;;;;7.90;5.38;;;;;;;32.33;59.91;100607.81;5006308;28;70268;-37
2021/06/22 07:17:21;;;;;;;6.57;5.30;;;;;;;32.26;59.76;100590.81;5006111;28;66524;-37
2021/06/22 07:20:11;;;;;;;6.75;5.07;;;;;;;32.34;60.11;100614.06;5007009;28;70178;-37
2021/06/22 07:23:16;;;;;;;9.02;5.95;;;;;;;32.32;60.00;100617.03;4967239;28;64555;-37
2021/06/22 07:26:32;;;;;;;6.57;5.28;;;;;;;32.24;60.24;100620.94;5004296;28;70067;-39
2021/06/22 07:29:25;;;;;;;8.05;5.57;;;;;;;32.30;59.82;100621.88;4977146;28;66548;-38
2021/06/22 07:32:01;;;;;;;9.88;5.05;;;;;;;32.37;59.90;100629.88;4986418;28;69356;-37
2021/06/22 07:34:57;;;;;;;8.65;4.75;;;;;;;32.38;60.12;100624.22;5002659;27;66327;-39
2021/06/22 07:37:45;;;;;;;5.03;4.50;;;;;;;32.41;59.88;100633.78;5073561;27;69368;-38
2021/06/22 07:40:34;;;;;;;9.55;5.78;;;;;;;32.38;59.89;100632.38;5075633;27;65517;-37
2021/06/22 07:43:31;;;;;;;6.80;4.90;;;;;;;32.28;59.77;100615.84;5011254;28;69446;-39
2021/06/22 07:46:07;;;;;;;8.15;5.00;;;;;;;32.45;59.49;100643.94;5017163;28;66822;-38
2021/06/22 07:48:41;;;;;;;6.05;4.45;;;;;;;32.49;59.48;100637.00;5025630;28;69500;-37
2021/06/22 07:51:18;;;;;;;8.93;4.70;;;;;;;32.54;59.45;100646.31;4998317;28;65945;-38
2021/06/22 07:53:58;;;;;;;8.02;5.05;;;;;;;32.50;59.24;100640.53;4996010;28;69820;-38
2021/06/22 07:56:29;;;;;;;6.20;4.82;;;;;;;32.57;59.53;100646.69;4999495;28;65605;-37
2021/06/22 07:59:03;;;;;;;5.03;4.10;;;;;;;32.55;59.29;100637.13;5017689;28;70087;-38
2021/06/22 08:01:38;;;;;;;6.50;5.13;;;;;;;32.63;59.03;100639.47;5014051;28;66468;-39
2021/06/22 08:04:17;;;;;;;6.63;5.00;;;;;;;32.65;58.69;100648.19;4995563;28;70932;-39
2021/06/22 08:07:13;;;;;;;5.53;4.13;;;;;;;32.68;58.94;100642.28;5028374;28;65453;-40
2021/06/22 08:10:04;;;;;;;5.85;4.43;;;;;;;32.69;58.80;100638.53;5051291;28;70403;-37
2021/06/22 08:12:53;;;;;;;9.48;3.97;;;;;;;32.70;58.72;100629.31;5049983;28;67046;-37
2021/06/22 08:15:42;;;;;;;4.28;3.97;;;;;;;32.73;58.58;100650.53;5050325;28;70520;-39
2021/06/22 08:18:16;;;;;;;4.57;4.18;;;;;;;32.76;58.47;100652.78;5033851;28;65756;-39
2021/06/22 08:21:05;;;;;;;4.20;3.80;;;;;;;32.77;58.34;100659.88;5081132;27;70105;-37
2021/06/22 08:24:06;;;;;;;5.85;3.83;;;;;;;32.72;58.00;100670.63;5106000;27;65422;-40
2021/06/22 08:26:39;;;;;;;4.18;3.45;;;;;;;32.80;58.51;100678.41;5087458;27;70575;-38
2021/06/22 08:29:15;;;;;;;5.22;3.70;;;;;;;32.80;58.14;100678.41;5103764;27;66511;-38
2021/06/22 08:31:49;;;;;;;6.57;4.22;;;;;;;32.81;57.89;100685.50;5110999;27;70095;-39
2021/06/22 08:35:10;;;;;;;3.72;3.40;;;;;;;32.81;57.96;100693.63;5038921;28;65888;-39
2021/06/22 08:37:46;;;;;;;6.47;4.18;;;;;;;32.82;58.11;100694.47;5026748;28;69221;-38
2021/06/22 08:40:21;;;;;;;7.20;3.80;;;;;;;32.81;57.79;100696.34;5040626;28;66257;-37
2021/06/22 08:43:07;;;;;;;7.10;3.42;;;;;;;32.82;58.09;100700.75;5047277;28;69421;-37
2021/06/22 08:46:39;;;;;;;4.00;3.22;;;;;;;32.58;57.90;100658.38;5007650;28;66718;-37
2021/06/22 08:49:15;;;;;;;7.88;3.92;;;;;;;32.83;57.82;100705.09;4989171;28;69325;-39
2021/06/22 08:52:08;;;;;;;4.05;3.58;;;;;;;32.83;57.78;100693.41;4998100;28;66283;-38
2021/06/22 08:54:40;;;;;;;4.80;3.60;;;;;;;32.83;57.98;100699.66;5008084;28;69893;-37
2021/06/22 08:57:30;;;;;;;4.82;3.10;;;;;;;32.74;57.81;100694.84;5010417;28;65674;-38
2021/06/22 09:00:39;;;;;;;4.82;3.17;;;;;;;32.74;57.82;100695.69;4998124;28;69396;-37
2021/06/22 09:03:25;;;;;;;3.67;3.05;;;;;;;32.59;57.66;100673.59;5005495;28;65988;-37
2021/06/22 09:06:16;;;;;;;4.72;3.17;;;;;;;32.73;57.64;100696.72;4999723;28;69324;-36
2021/06/22 09:08:55;;;;;;;4.38;3.47;;;;;;;32.57;57.73;100678.41;5005699;28;65959;-37
2021/06/22 09:11:27;;;;;;;6.80;3.40;;;;;;;32.76;57.69;100704.38;5015265;28;70046;-37
2021/06/22 09:13:59;;;;;;;;;;;;;;;32.56;58.15;100704.75;5033918;28;65426;-37
2021/06/22 09:16:31;;;;;;;5.30;2.60;;;;;;;32.74;57.78;100711.97;5014996;28;70216;-37
2021/06/22 09:19:09;;;;;;;4.30;2.92;;;;;;;32.73;57.63;100710.31;5025691;28;65270;-38
2021/06/22 09:21:43;;;;;;;4.38;2.80;;;;;;;32.44;57.38;100663.19;5030148;28;70041;-37
2021/06/22 09:24:20;;;;;;;3.50;2.85;;;;;;;32.78;57.62;100713.13;5105003;27;66558;-38
2021/06/22 09:27:34;;;;;;;4.47;3.13;;;;;;;32.71;57.82;100716.00;5092768;27;69669;-37
2021/06/22 09:30:13;;;;;;;3.42;2.92;;;;;;;32.77;57.63;100706.06;5104916;27;66105;-37
2021/06/22 09:32:44;;;;;;;3.33;3.03;;;;;;;32.77;57.62;100711.50;5100548;27;70080;-37
2021/06/22 09:35:21;;;;;;;4.20;3.30;;;;;;;32.79;57.40;100708.53;5098461;27;66586;-37
2021/06/22 09:44:06;;;;;;;8.70;3.80;;;;;;;32.69;57.57;100698.28;5105619;27;69979;-38
2021/06/22 09:47:10;;;;;;;4.85;3.70;;;;;;;32.55;57.52;100661.56;5102831;27;65589;-38
2021/06/22 09:49:43;;;;;;;4.07;3.63;;;;;;;32.77;57.40;100695.19;5082945;27;69874;-38
2021/06/22 09:52:26;;;;;;;6.00;4.50;;;;;;;32.77;57.34;100692.47;5105082;27;66667;-38
2021/06/22 09:54:57;;;;;;;4.65;3.97;;;;;;;32.79;57.48;100692.22;5098107;27;70465;-39
2021/06/22 09:57:49;;;;;;;6.18;4.32;;;;;;;32.71;57.34;100691.53;5098860;27;66137;-38
2021/06/22 10:00:38;;;;;;;7.10;4.65;;;;;;;32.76;57.39;100681.84;5100534;27;69211;-44
2021/06/22 10:03:10;;;;;;;7.15;4.80;;;;;;;32.74;57.59;100678.56;5107857;27;65457;-38
2021/06/22 10:06:05;;;;;;;6.15;4.40;;;;;;;32.70;57.55;100684.44;5106626;27;69691;-39
2021/06/22 10:09:11;;;;;;;4.85;4.40;;;;;;;32.72;57.58;100692.38;5103119;27;66042;-39
2021/06/22 10:11:43;;;;;;;12.55;6.15;;;;;;;32.74;58.16;100690.25;5101370;27;69438;-38
2021/06/22 10:14:33;;;;;;;13.32;6.40;;;;;;;32.67;58.23;100694.97;5109321;27;65932;-40
2021/06/22 10:17:08;;;;;;;13.32;7.32;;;;;;;32.65;58.76;100688.94;5110221;27;69517;-39
2021/06/22 10:20:06;;;;;;;15.27;7.72;;;;;;;32.39;58.88;100649.50;5107211;27;66508;-39
2021/06/22 10:22:42;;;;;;;18.88;7.97;;;;;;;32.55;58.72;100691.44;5107096;27;69446;-39
2021/06/22 10:25:15;;;;;;;15.65;7.90;;;;;;;32.51;59.02;100679.38;5106692;27;66108;-38
2021/06/22 10:27:51;;;;;;;13.32;7.32;;;;;;;32.47;59.37;100690.72;5107565;27;70155;-38
2021/06/22 10:30:44;;;;;;;17.80;8.50;;;;;;;32.43;59.50;100699.53;5110315;27;66019;-38
2021/06/22 10:33:17;;;;;;;16.55;8.23;;;;;;;32.43;59.26;100704.94;5108661;27;69363;-38
2021/06/22 10:35:48;;;;;;;11.60;8.02;;;;;;;32.37;59.72;100709.44;5106161;27;65970;-39
2021/06/22 10:38:22;;;;;;;;;;;;;;;32.15;60.57;100713.78;5110070;27;70466;-38
2021/06/22 10:41:16;;;;;;;13.02;7.95;;;;;;;32.25;59.51;100709.44;5111348;27;66995;-37
2021/06/22 10:47:23;;;;;;;16.00;8.05;;;;;;;32.00;59.65;100677.06;5109675;27;65757;-37
2021/06/22 10:49:57;;;;;;;14.00;8.80;;;;;;;32.26;59.96;100715.69;5109488;27;69363;-36
2021/06/22 10:52:47;;;;;;;22.95;8.70;;;;;;;32.18;60.09;100729.56;5109915;27;65459;-36
2021/06/22 10:55:48;;;;;;;15.70;8.20;;;;;;;32.22;60.01;100730.78;5106612;27;70106;-38
2021/06/22 10:58:20;;;;;;;13.57;9.93;;;;;;;32.22;60.42;100747.88;5070923;27;66288;-46
2021/06/22 11:01:17;;;;;;;13.30;10.32;;;;;;;32.22;59.90;100741.63;5092929;27;70087;-38
2021/06/22 11:04:09;;;;;;;21.73;11.43;;;;;;;32.24;59.82;100750.38;5085061;27;65450;-36
2021/06/22 11:06:40;;;;;;;22.75;11.77;;;;;;;32.21;60.05;100756.28;5100490;27;69725;-36
2021/06/22 11:12:21;;;;;;;21.58;10.80;;;;;;;32.17;60.06;100755.06;5108576;27;70287;-36
2021/06/22 11:15:07;;;;;;;17.90;11.48;;;;;;;32.10;60.62;100748.94;5101346;27;65210;-35
2021/06/22 11:20:41;;;;;;;15.23;10.63;;;;;;;32.19;60.13;100769.25;5080946;27;65343;-37
2021/06/22 11:23:16;;;;;;;17.70;11.13;;;;;;;32.03;60.17;100735.44;5095917;27;69457;-36
2021/06/22 11:26:02;;;;;;;19.48;11.65;;;;;;;32.26;60.26;100769.97;5104342;27;66415;-37
2021/06/22 11:32:32;;;;;;;13.80;11.23;;;;;;;32.29;59.84;100783.09;5099671;27;66220;-36
2021/06/22 11:35:08;;;;;;;;;;;;;;;32.19;60.20;100785.53;5092961;27;69945;-36
2021/06/22 11:38:12;;;;;;;13.98;10.50;;;;;;;32.35;60.18;100797.63;5113191;27;66210;-36
2021/06/22 11:44:08;;;;;;;25.38;14.43;;;;;;;32.39;60.65;100817.81;5114114;27;65604;-37
2021/06/22 11:46:41;;;;;;;26.10;14.68;;;;;;;32.31;60.55;100827.09;5105690;27;70148;-38
2021/06/22 11:52:12;;;;;;;22.52;17.42;;;;;;;32.23;60.64;100857.28;5107963;27;69569;-36
2021/06/22 11:54:56;;;;;;;32.63;20.65;;;;;;;32.21;61.16;100859.41;5107199;27;65449;-36
2021/06/22 11:57:35;;;;;;;50.22;20.67;;;;;;;32.01;61.20;100838.81;5110232;27;70942;-36
2021/06/22 12:00:11;;;;;;;35.75;20.02;;;;;;;32.11;61.26;100878.13;5111353;27;65903;-35
2021/06/22 12:03:03;;;;;;;35.00;19.13;;;;;;;31.86;61.13;100862.75;5094164;27;69117;-35
2021/06/22 12:05:40;;;;;;;35.75;19.42;;;;;;;31.97;61.44;100902.69;5107957;27;66189;-34
2021/06/22 12:08:27;;;;;;;35.55;18.77;;;;;;;31.79;61.99;100884.53;5108146;27;69925;-36
2021/06/22 12:11:48;;;;;;;25.27;17.25;;;;;;;31.85;61.77;100918.06;5109641;27;66093;-36
2021/06/22 12:14:22;;;;;;;31.58;17.90;;;;;;;31.83;62.38;100912.03;5112993;27;70341;-37
2021/06/22 12:20:40;;;;;;;31.38;16.80;;;;;;;31.65;60.37;100917.44;5107244;27;69967;-36
2021/06/22 12:28:56;;;;;;;21.88;13.70;;;;;;;31.24;56.14;100913.44;5110169;27;65144;-35
2021/06/22 12:34:44;;;;;;;21.25;12.18;;;;;;;31.00;53.96;100915.91;5109101;27;66499;-36
2021/06/22 12:37:27;;;;;;;29.60;12.82;;;;;;;30.88;53.42;100909.56;5115862;27;70336;-37
2021/06/22 12:40:23;;;;;;;16.20;11.93;;;;;;;30.86;51.72;100911.66;5118010;27;66127;-34
2021/06/22 12:43:01;;;;;;;21.30;10.60;;;;;;;30.76;51.14;100916.66;5110782;27;70491;-35
2021/06/22 12:45:53;;;;;;;12.63;11.07;;;;;;;30.69;51.46;100922.97;5106662;27;66298;-36
2021/06/22 12:48:26;;;;;;;19.40;10.65;;;;;;;30.58;50.40;100918.25;5095900;27;69307;-36
2021/06/22 12:50:58;;;;;;;24.20;10.50;;;;;;;30.54;49.99;100914.34;5111168;27;64465;-35
2021/06/22 12:53:51;;;;;;;19.95;10.07;;;;;;;30.42;48.56;100921.47;5097809;27;69333;-36
2021/06/22 12:56:41;;;;;;;23.70;9.77;;;;;;;30.42;51.03;100924.16;5099620;27;66652;-36
2021/06/22 12:59:49;;;;;;;19.60;8.52;;;;;;;30.28;49.43;100918.00;5069441;27;70280;-36
2021/06/22 13:02:29;;;;;;;14.80;8.32;;;;;;;30.32;49.38;100929.22;5025829;28;65253;-41
2021/06/22 13:05:33;;;;;;;17.08;8.40;;;;;;;30.27;46.99;100925.28;5067548;28;70189;-37
2021/06/22 13:08:29;;;;;;;16.10;8.15;;;;;;;30.27;46.60;100919.88;5067647;27;65400;-35
2021/06/22 13:11:07;;;;;;;10.38;7.53;;;;;;;30.26;44.90;100928.22;5075123;27;69409;-38
2021/06/22 13:13:41;;;;;;;19.00;8.15;;;;;;;30.22;45.63;100932.38;5069558;28;67005;-38
2021/06/22 13:16:18;;;;;;;14.68;7.32;;;;;;;30.15;44.47;100940.50;5054690;27;68880;-34
2021/06/22 13:18:57;;;;;;;14.35;7.55;;;;;;;30.12;43.26;100951.75;5109987;27;66079;-36
2021/06/22 13:21:51;;;;;;;;;;;;;;;29.86;44.23;100968.03;5091582;27;69926;-35
2021/06/22 13:24:36;;;;;;;7.43;6.63;;;;;;;30.02;42.64;100964.88;5110325;27;66508;-36
2021/06/22 13:27:26;;;;;;;9.07;7.32;;;;;;;29.88;42.41;100944.34;5111401;27;70076;-38
2021/06/22 13:30:13;;;;;;;10.27;7.18;;;;;;;29.91;42.17;100962.84;5106341;27;66274;-36
2021/06/22 13:33:13;;;;;;;11.93;6.47;;;;;;;29.94;42.33;100986.75;5027518;28;70420;-37
2021/06/22 13:36:19;;;;;;;16.63;7.10;;;;;;;29.91;41.38;100989.88;5024658;28;66394;-36
2021/06/22 13:39:20;;;;;;;14.65;7.22;;;;;;;29.73;41.35;100966.22;5008119;28;69310;-36
2021/06/22 13:42:35;;;;;;;18.55;6.78;;;;;;;29.75;41.83;101001.97;5005292;28;66005;-35
2021/06/22 13:45:14;;;;;;;24.60;6.82;;;;;;;29.78;41.70;101002.41;5005752;28;69851;-36
2021/06/22 13:48:22;;;;;;;22.15;6.65;;;;;;;29.75;42.14;100997.38;5002005;28;65063;-37
2021/06/22 13:51:06;;;;;;;30.20;7.32;;;;;;;29.76;43.87;100998.25;4990497;28;69662;-39
2021/06/22 13:53:43;;;;;;;26.23;7.05;;;;;;;29.63;46.58;100974.75;5004022;28;66116;-39
2021/06/22 14:02:30;;;;;;;16.65;7.00;;;;;;;29.67;47.87;100991.38;5092690;27;65393;-37
2021/06/22 14:08:32;;;;;;;26.83;7.35;;;;;;;29.58;47.87;100990.72;5087496;27;66532;-38
2021/06/22 14:11:09;;;;;;;24.65;6.90;;;;;;;29.56;49.12;100987.38;5103424;27;70537;-38
2021/06/22 14:14:07;;;;;;;22.05;6.40;;;;;;;29.58;49.54;101001.53;5091895;27;66492;-37
2021/06/22 14:16:45;;;;;;;18.35;6.47;;;;;;;29.58;49.20;101007.75;5091112;27;70360;-39
2021/06/22 14:19:22;;;;;;;13.23;6.43;;;;;;;29.48;49.62;100990.34;5092656;27;65980;-39
2021/06/22 14:21:57;;;;;;;15.10;6.32;;;;;;;29.53;49.37;100998.63;5091801;27;70156;-38
2021/06/22 14:24:34;;;;;;;19.95;6.47;;;;;;;29.47;48.85;101000.28;5108322;27;66115;-38
2021/06/22 14:27:41;;;;;;;14.15;6.35;;;;;;;29.47;48.60;100999.47;5090140;27;69787;-39
2021/06/22 14:30:23;;;;;;;13.75;6.00;;;;;;;29.40;48.32;101004.88;5089893;27;66257;-39
2021/06/22 14:32:57;;;;;;;27.85;6.15;;;;;;;29.36;48.73;101001.75;5083475;27;69956;-39
2021/06/22 14:35:31;;;;;;;14.40;6.45;;;;;;;29.30;48.56;101005.25;5098605;27;65563;-39